createdAt,value
2023-04-29T00:01:59.181Z,40.18
2023-04-29T00:04:27.525Z,40.17
2023-04-29T00:06:55.999Z,40.22
2023-04-29T00:09:24.120Z,40.15
2023-04-29T00:11:52.197Z,40.16
2023-04-29T00:14:21.731Z,40.18
2023-04-29T00:16:49.921Z,40.10
2023-04-29T00:19:18.404Z,40.09
2023-04-29T00:21:46.481Z,40.07
2023-04-29T00:24:14.549Z,40.09
2023-04-29T00:26:42.682Z,40.20
2023-04-29T00:29:11.024Z,40.10
2023-04-29T00:31:40.584Z,40.22
2023-04-29T00:34:08.702Z,40.14
2023-04-29T00:36:36.781Z,40.08
2023-04-29T00:39:05.005Z,40.23
2023-04-29T00:41:34.252Z,40.02
2023-04-29T00:44:02.394Z,40.11
2023-04-29T00:46:30.527Z,40.16
2023-04-29T00:49:00.456Z,40.07
2023-04-29T00:51:29.309Z,40.00
2023-04-29T00:53:57.636Z,40.11
2023-04-29T00:56:25.808Z,39.99
2023-04-29T00:58:54.143Z,40.13
2023-04-29T01:01:22.450Z,40.08
2023-04-29T01:03:51.160Z,40.09
2023-04-29T01:06:33.104Z,40.00
2023-04-29T01:09:20.103Z,40.00
2023-04-29T01:11:56.801Z,40.05
2023-04-29T01:14:27.826Z,40.06
2023-04-29T01:17:01.319Z,40.07
2023-04-29T01:19:45.646Z,39.82
2023-04-29T01:22:17.736Z,40.01
2023-04-29T01:24:48.371Z,39.97
2023-04-29T01:27:26.749Z,39.87
2023-04-29T01:30:01.340Z,39.97
2023-04-29T01:32:42.271Z,39.87
2023-04-29T01:35:26.968Z,39.94
2023-04-29T01:38:04.108Z,39.99
2023-04-29T01:40:44.393Z,39.82
2023-04-29T01:43:14.089Z,40.01
2023-04-29T01:45:42.495Z,40.02
2023-04-29T01:48:11.524Z,39.98
2023-04-29T01:50:39.596Z,40.11
2023-04-29T01:53:08.426Z,40.06
2023-04-29T01:55:37.978Z,39.98
2023-04-29T01:58:05.992Z,40.01
2023-04-29T02:00:34.121Z,39.93
2023-04-29T02:03:02.278Z,39.96
2023-04-29T02:05:33.961Z,39.93
2023-04-29T02:08:02.811Z,39.94
2023-04-29T02:10:30.986Z,39.99
2023-04-29T02:13:01.391Z,39.97
2023-04-29T02:15:29.987Z,40.07
2023-04-29T02:17:58.056Z,39.97
2023-04-29T02:20:26.182Z,39.92
2023-04-29T02:22:54.230Z,39.95
2023-04-29T02:25:22.305Z,39.89
2023-04-29T02:27:50.441Z,39.90
2023-04-29T02:30:20.559Z,39.89
2023-04-29T02:32:48.611Z,39.93
2023-04-29T02:35:16.858Z,39.80
2023-04-29T02:37:45.034Z,39.94
2023-04-29T02:40:13.947Z,39.90
2023-04-29T02:42:42.577Z,39.96
2023-04-29T02:45:12.180Z,39.96
2023-04-29T02:47:41.657Z,39.92
2023-04-29T02:50:10.191Z,39.98
2023-04-29T02:52:38.550Z,39.90
2023-04-29T02:55:07.352Z,39.89
2023-04-29T02:57:35.438Z,39.75
2023-04-29T03:00:04.021Z,39.71
2023-04-29T03:02:32.346Z,39.88
2023-04-29T03:05:01.889Z,39.90
2023-04-29T03:07:30.165Z,39.80
2023-04-29T03:09:58.395Z,39.76
2023-04-29T03:12:26.498Z,39.77
2023-04-29T03:14:54.560Z,39.73
2023-04-29T03:17:22.651Z,39.89
2023-04-29T03:19:51.527Z,39.88
2023-04-29T03:22:21.386Z,39.74
2023-04-29T03:24:49.406Z,39.90
2023-04-29T03:27:17.879Z,39.87
2023-04-29T03:29:45.888Z,39.80
2023-04-29T03:32:13.951Z,39.77
2023-04-29T03:34:42.014Z,39.88
2023-04-29T03:37:10.050Z,39.77
2023-04-29T03:39:39.501Z,39.86
2023-04-29T03:42:07.539Z,39.85
2023-04-29T03:44:35.627Z,39.84
2023-04-29T03:47:03.683Z,39.72
2023-04-29T03:49:31.727Z,39.75
2023-04-29T03:51:59.832Z,39.82
2023-04-29T03:54:28.200Z,39.74
2023-04-29T03:56:57.655Z,39.81
2023-04-29T03:59:25.669Z,39.73
2023-04-29T04:01:54.511Z,39.72
2023-04-29T04:04:22.989Z,39.78
2023-04-29T04:06:51.947Z,39.74
2023-04-29T04:09:20.276Z,39.83
2023-04-29T04:11:48.404Z,39.65
2023-04-29T04:14:18.645Z,39.70
2023-04-29T04:16:47.176Z,39.79
2023-04-29T04:19:15.274Z,39.64
2023-04-29T04:21:43.648Z,39.75
2023-04-29T04:24:11.786Z,39.75
2023-04-29T04:26:39.849Z,39.71
2023-04-29T04:29:07.973Z,39.81
2023-04-29T04:31:37.489Z,39.82
2023-04-29T04:34:05.608Z,39.81
2023-04-29T04:36:33.791Z,39.74
2023-04-29T04:39:01.914Z,39.75
2023-04-29T04:41:31.644Z,39.75
2023-04-29T04:43:59.833Z,39.80
2023-04-29T04:46:27.955Z,39.74
2023-04-29T04:48:57.477Z,39.63
2023-04-29T04:51:25.530Z,39.76
2023-04-29T04:53:53.637Z,39.51
2023-04-29T04:56:22.111Z,39.69
2023-04-29T04:58:50.375Z,39.66
2023-04-29T05:01:18.566Z,39.66
2023-04-29T05:03:47.067Z,39.77
2023-04-29T05:06:16.791Z,39.79
2023-04-29T05:08:44.939Z,39.78
2023-04-29T05:11:18.771Z,39.73
2023-04-29T05:13:46.960Z,39.84
2023-04-29T05:16:15.372Z,39.80
2023-04-29T05:18:45.262Z,39.69
2023-04-29T05:21:14.492Z,39.84
2023-04-29T05:23:44.958Z,39.68
2023-04-29T05:26:13.032Z,39.73
2023-04-29T05:28:41.147Z,39.74
2023-04-29T05:31:09.761Z,39.71
2023-04-29T05:33:37.977Z,39.76
2023-04-29T05:36:06.765Z,39.78
2023-04-29T05:38:34.903Z,39.82
2023-04-29T05:41:05.044Z,39.74
2023-04-29T05:43:33.247Z,39.80
2023-04-29T05:46:01.648Z,39.72
2023-04-29T05:48:30.515Z,39.82
2023-04-29T05:50:58.680Z,39.69
2023-04-29T05:53:26.776Z,39.76
2023-04-29T05:55:54.854Z,39.82
2023-04-29T05:58:25.729Z,39.86
2023-04-29T06:00:53.839Z,39.77
2023-04-29T06:03:22.247Z,39.75
2023-04-29T06:05:51.036Z,39.79
2023-04-29T06:08:19.603Z,39.70
2023-04-29T06:10:48.129Z,39.87
2023-04-29T06:13:16.221Z,39.78
2023-04-29T06:15:46.049Z,39.84
2023-04-29T06:18:14.484Z,39.75
2023-04-29T06:20:42.560Z,39.86
2023-04-29T06:23:10.652Z,39.79
2023-04-29T06:25:38.834Z,39.77
2023-04-29T06:28:08.524Z,39.84
2023-04-29T06:30:36.649Z,39.76
2023-04-29T06:33:06.210Z,39.82
2023-04-29T06:35:34.371Z,39.82
2023-04-29T06:38:02.444Z,39.77
2023-04-29T06:40:30.772Z,39.76
2023-04-29T06:42:58.927Z,39.79
2023-04-29T06:45:27.449Z,39.83
2023-04-29T06:47:55.790Z,39.88
2023-04-29T06:50:26.435Z,39.87
2023-04-29T06:52:54.583Z,39.93
2023-04-29T06:55:22.662Z,39.81
2023-04-29T06:57:50.775Z,39.95
2023-04-29T07:00:21.163Z,39.90
2023-04-29T07:02:49.296Z,39.89
2023-04-29T07:05:17.661Z,39.88
2023-04-29T07:07:47.291Z,39.90
2023-04-29T07:10:15.518Z,39.94
2023-04-29T07:12:43.642Z,40.02
2023-04-29T07:15:12.085Z,39.93
2023-04-29T07:17:40.182Z,39.77
2023-04-29T07:20:09.638Z,39.93
2023-04-29T07:22:37.748Z,39.95
2023-04-29T07:25:07.658Z,40.01
2023-04-29T07:27:36.157Z,40.08
2023-04-29T07:30:04.914Z,39.91
2023-04-29T07:32:33.217Z,40.04
2023-04-29T07:35:01.756Z,40.01
2023-04-29T07:37:29.943Z,40.02
2023-04-29T07:39:58.045Z,40.09
2023-04-29T07:42:27.773Z,39.94
2023-04-29T07:44:56.004Z,40.05
2023-04-29T07:47:24.147Z,40.08
2023-04-29T07:49:52.827Z,40.00
2023-04-29T07:52:20.979Z,40.05
2023-04-29T07:54:49.147Z,40.00
2023-04-29T07:57:17.614Z,40.15
2023-04-29T07:59:47.102Z,40.09
2023-04-29T08:02:16.933Z,40.08
2023-04-29T08:04:45.399Z,40.14
2023-04-29T08:07:13.892Z,40.24
2023-04-29T08:09:42.073Z,40.05
2023-04-29T08:12:10.548Z,40.21
2023-04-29T08:14:38.658Z,40.16
2023-04-29T08:17:08.795Z,40.18
2023-04-29T08:19:37.061Z,40.14
2023-04-29T08:22:05.739Z,40.07
2023-04-29T08:24:35.164Z,40.19
2023-04-29T08:27:03.701Z,40.21
2023-04-29T08:29:34.394Z,40.14
2023-04-29T08:32:02.602Z,40.13
2023-04-29T08:34:33.613Z,40.10
2023-04-29T08:37:01.687Z,40.22
2023-04-29T08:39:30.490Z,40.23
2023-04-29T08:44:27.754Z,40.20
2023-04-29T08:46:56.584Z,40.23
2023-04-29T08:49:24.688Z,40.16
2023-04-29T08:51:54.243Z,40.22
2023-04-29T08:54:22.348Z,40.17
2023-04-29T08:56:52.974Z,40.14
2023-04-29T08:59:22.219Z,40.19
2023-04-29T09:01:54.295Z,40.22
2023-04-29T09:04:36.218Z,40.18
2023-04-29T09:07:06.871Z,40.11
2023-04-29T09:09:35.467Z,40.12
2023-04-29T09:12:03.581Z,40.08
2023-04-29T09:14:34.372Z,40.25
2023-04-29T09:17:02.529Z,40.13
2023-04-29T09:19:32.162Z,40.09
2023-04-29T09:22:01.025Z,40.21
2023-04-29T09:24:32.024Z,40.12
2023-04-29T09:27:00.572Z,40.21
2023-04-29T09:29:29.555Z,40.19
2023-04-29T09:32:01.541Z,40.09
2023-04-29T09:34:35.823Z,40.18
2023-04-29T09:37:04.047Z,40.17
2023-04-29T09:39:41.085Z,40.19
2023-04-29T09:42:09.732Z,40.16
2023-04-29T09:44:37.971Z,40.26
2023-04-29T09:47:07.846Z,40.23
2023-04-29T09:49:39.786Z,40.22
2023-04-29T09:52:09.703Z,40.34
2023-04-29T09:54:39.874Z,40.13
2023-04-29T09:57:10.533Z,40.27
2023-04-29T09:59:40.791Z,40.23
2023-04-29T10:02:15.676Z,40.33
2023-04-29T10:04:46.918Z,40.21
2023-04-29T10:07:17.229Z,40.35
2023-04-29T10:09:47.798Z,40.23
2023-04-29T10:12:20.359Z,40.32
2023-04-29T10:14:56.408Z,40.28
2023-04-29T10:17:31.927Z,40.27
2023-04-29T10:20:05.923Z,40.28
2023-04-29T10:22:37.648Z,40.28
2023-04-29T10:25:08.875Z,40.31
2023-04-29T10:27:38.774Z,40.27
2023-04-29T10:30:11.385Z,40.29
2023-04-29T10:32:50.554Z,40.40
2023-04-29T10:35:23.632Z,40.23
2023-04-29T10:37:53.144Z,40.28
2023-04-29T10:40:28.981Z,40.38
2023-04-29T10:42:59.668Z,40.28
2023-04-29T10:45:31.361Z,40.31
2023-04-29T10:48:16.704Z,40.47
2023-04-29T10:51:04.583Z,40.31
2023-04-29T10:53:32.954Z,40.40
2023-04-29T10:56:06.491Z,40.39
2023-04-29T10:58:42.238Z,40.47
2023-04-29T11:01:12.697Z,40.35
2023-04-29T11:03:59.605Z,40.40
2023-04-29T11:06:41.754Z,40.46
2023-04-29T11:09:12.130Z,40.30
2023-04-29T11:11:49.063Z,40.46
2023-04-29T11:14:24.983Z,40.30
2023-04-29T11:16:55.082Z,40.45
2023-04-29T11:19:25.933Z,40.27
2023-04-29T11:22:10.363Z,40.39
2023-04-29T11:24:38.743Z,40.29
2023-04-29T11:27:07.231Z,40.40
2023-04-29T11:29:37.188Z,40.36
2023-04-29T11:32:05.443Z,40.27
2023-04-29T11:34:33.735Z,40.42
2023-04-29T11:37:01.931Z,40.42
2023-04-29T11:39:29.982Z,40.51
2023-04-29T11:42:05.109Z,40.39
2023-04-29T11:44:37.681Z,40.44
2023-04-29T11:47:06.260Z,40.52
2023-04-29T11:49:35.412Z,40.37
2023-04-29T11:52:03.616Z,40.40
2023-04-29T11:54:32.156Z,40.42
2023-04-29T11:57:00.360Z,40.26
2023-04-29T11:59:29.504Z,40.37
2023-04-29T12:02:00.612Z,40.41
2023-04-29T12:04:28.902Z,40.27
2023-04-29T12:06:59.874Z,40.32
2023-04-29T12:09:28.026Z,40.34
2023-04-29T12:11:56.361Z,40.39
2023-04-29T12:14:24.497Z,40.38
2023-04-29T12:16:54.263Z,40.35
2023-04-29T12:19:23.922Z,40.33
2023-04-29T12:21:52.477Z,40.35
2023-04-29T12:24:22.860Z,40.41
2023-04-29T12:26:51.046Z,40.25
2023-04-29T12:29:23.703Z,40.36
2023-04-29T12:31:53.004Z,40.45
2023-04-29T12:34:28.600Z,40.34
2023-04-29T12:36:57.806Z,40.32
2023-04-29T12:39:27.187Z,40.41
2023-04-29T12:41:57.805Z,40.44
2023-04-29T12:44:26.420Z,40.22
2023-04-29T12:46:57.699Z,40.35
2023-04-29T12:49:29.630Z,40.38
2023-04-29T12:51:57.776Z,40.31
2023-04-29T12:54:25.941Z,40.32
2023-04-29T12:56:54.088Z,40.35
2023-04-29T12:59:22.188Z,40.31
2023-04-29T13:01:50.435Z,40.42
2023-04-29T13:04:18.844Z,40.30
2023-04-29T13:06:48.602Z,40.29
2023-04-29T13:09:18.829Z,40.33
2023-04-29T13:11:47.773Z,40.41
2023-04-29T13:14:16.507Z,40.38
2023-04-29T13:16:44.746Z,40.40
2023-04-29T13:19:25.660Z,40.30
2023-04-29T13:21:59.820Z,40.25
2023-04-29T13:24:27.885Z,40.34
2023-04-29T13:26:56.123Z,40.35
2023-04-29T13:29:24.273Z,40.30
2023-04-29T13:31:52.408Z,40.30
2023-04-29T13:34:21.374Z,40.38
2023-04-29T13:36:49.620Z,40.34
2023-04-29T13:39:20.390Z,40.28
2023-04-29T13:41:48.682Z,40.42
2023-04-29T13:44:24.901Z,40.23
2023-04-29T13:46:57.540Z,40.29
2023-04-29T13:49:42.713Z,40.26
2023-04-29T13:53:10.011Z,40.38
2023-04-29T13:55:58.725Z,40.29
2023-04-29T14:05:26.714Z,40.35
2023-04-29T14:07:54.909Z,40.48
2023-04-29T14:10:24.935Z,40.33
2023-04-29T14:12:53.069Z,40.35
2023-04-29T14:15:21.161Z,40.39
2023-04-29T14:17:50.392Z,40.38
2023-04-29T14:20:18.612Z,40.31
2023-04-29T14:22:46.693Z,40.26
2023-04-29T14:25:14.927Z,40.28
2023-04-29T14:27:44.838Z,40.28
2023-04-29T14:30:13.543Z,40.25
2023-04-29T14:32:41.662Z,40.21
2023-04-29T14:35:11.153Z,40.17
2023-04-29T14:37:39.731Z,40.20
2023-04-29T14:40:09.430Z,40.17
2023-04-29T14:42:37.602Z,40.30
2023-04-29T14:45:08.390Z,40.18
2023-04-29T14:47:36.598Z,40.16
2023-04-29T14:50:05.064Z,40.20
2023-04-29T14:52:33.147Z,40.24
2023-04-29T14:55:01.749Z,40.21
2023-04-29T14:57:30.049Z,40.24
2023-04-29T14:59:58.285Z,40.12
2023-04-29T15:02:28.290Z,40.18
2023-04-29T15:04:56.630Z,40.25
2023-04-29T15:07:24.914Z,40.14
2023-04-29T15:09:53.024Z,40.20
2023-04-29T15:12:22.346Z,40.20
2023-04-29T15:14:50.800Z,40.24
2023-04-29T15:17:18.938Z,40.13
2023-04-29T15:19:48.516Z,40.11
2023-04-29T15:22:16.649Z,40.20
2023-04-29T15:24:45.135Z,40.04
2023-04-29T15:27:13.233Z,40.13
2023-04-29T15:29:41.806Z,40.12
2023-04-29T15:32:10.728Z,40.18
2023-04-29T15:34:38.877Z,40.20
2023-04-29T15:37:08.539Z,40.16
2023-04-29T15:39:36.727Z,40.01
2023-04-29T15:42:05.056Z,40.04
2023-04-29T15:44:34.138Z,40.10
2023-04-29T15:47:02.791Z,40.15
2023-04-29T15:49:31.130Z,39.99
2023-04-29T15:51:59.246Z,40.07
2023-04-29T15:54:28.801Z,39.98
2023-04-29T15:56:57.190Z,39.99
2023-04-29T15:59:25.391Z,39.98
2023-04-29T16:01:53.645Z,40.00
2023-04-29T16:04:21.801Z,40.02
2023-04-29T16:06:50.094Z,40.05
2023-04-29T16:09:18.142Z,40.10
2023-04-29T16:11:47.625Z,40.09
2023-04-29T16:14:15.744Z,40.08
2023-04-29T16:16:43.892Z,40.10
2023-04-29T16:19:11.982Z,40.10
2023-04-29T16:21:40.085Z,40.07
2023-04-29T16:24:08.393Z,40.03
2023-04-29T16:26:37.051Z,39.96
2023-04-29T16:29:06.608Z,39.95
2023-04-29T16:31:34.774Z,40.09
2023-04-29T16:34:03.446Z,39.96
2023-04-29T16:36:32.722Z,40.06
2023-04-29T16:39:00.849Z,40.06
2023-04-29T16:41:29.136Z,39.94
2023-04-29T16:43:57.458Z,40.06
2023-04-29T16:46:27.328Z,40.02
2023-04-29T16:48:56.896Z,40.01
2023-04-29T16:51:26.447Z,39.99
2023-04-29T16:53:54.775Z,40.05
2023-04-29T16:56:23.235Z,40.02
2023-04-29T16:58:51.297Z,40.08
2023-04-29T17:01:19.888Z,40.03
2023-04-29T17:03:50.264Z,39.98
2023-04-29T17:06:18.604Z,40.06
2023-04-29T17:08:47.513Z,40.02
2023-04-29T17:11:18.330Z,40.06
2023-04-29T17:13:46.479Z,40.12
2023-04-29T17:16:15.530Z,40.01
2023-04-29T17:18:43.865Z,40.04
2023-04-29T17:21:13.425Z,40.16
2023-04-29T17:23:41.436Z,40.10
2023-04-29T17:26:09.472Z,40.12
2023-04-29T17:28:37.580Z,40.10
2023-04-29T17:31:06.433Z,40.02
2023-04-29T17:33:35.627Z,40.04
2023-04-29T17:36:04.396Z,39.91
2023-04-29T17:38:34.254Z,40.03
2023-04-29T17:41:03.181Z,40.02
2023-04-29T17:43:33.298Z,40.05
2023-04-29T17:46:01.451Z,40.09
2023-04-29T17:48:29.561Z,40.00
2023-04-29T17:50:57.593Z,40.02
2023-04-29T17:53:26.329Z,39.92
2023-04-29T17:55:55.787Z,39.96
2023-04-29T17:58:23.826Z,39.98
2023-04-29T18:00:52.323Z,40.05
2023-04-29T18:03:20.570Z,40.01
2023-04-29T18:05:48.684Z,40.02
2023-04-29T18:08:16.738Z,40.04
2023-04-29T18:10:44.894Z,40.06
2023-04-29T18:13:14.335Z,39.92
2023-04-29T18:15:42.989Z,39.91
2023-04-29T18:18:11.109Z,40.03
2023-04-29T18:20:40.808Z,39.93
2023-04-29T18:23:08.841Z,40.02
2023-04-29T18:25:37.682Z,39.84
2023-04-29T18:28:23.099Z,39.97
2023-04-29T18:30:53.586Z,39.91
2023-04-29T18:33:23.290Z,39.87
2023-04-29T18:35:51.752Z,39.96
2023-04-29T18:38:19.779Z,39.96
2023-04-29T18:40:48.552Z,39.98
2023-04-29T18:43:18.284Z,39.95
2023-04-29T18:45:46.726Z,39.87
2023-04-29T18:48:16.278Z,39.90
2023-04-29T18:50:44.544Z,39.90
2023-04-29T18:53:12.619Z,39.94
2023-04-29T18:55:40.740Z,39.80
2023-04-29T18:58:09.361Z,39.82
2023-04-29T19:00:37.450Z,39.92
2023-04-29T19:03:06.284Z,39.94
2023-04-29T19:05:35.899Z,39.90
2023-04-29T19:08:04.009Z,39.84
2023-04-29T19:10:32.130Z,39.91
2023-04-29T19:13:00.266Z,39.92
2023-04-29T19:15:32.037Z,39.99
2023-04-29T19:18:00.285Z,39.94
2023-04-29T19:20:28.740Z,39.80
2023-04-29T19:22:58.257Z,39.94
2023-04-29T19:25:27.050Z,39.87
2023-04-29T19:27:55.181Z,39.91
2023-04-29T19:30:23.272Z,39.87
2023-04-29T19:32:51.413Z,39.84
2023-04-29T19:35:19.567Z,39.85
2023-04-29T19:37:47.632Z,39.95
2023-04-29T19:40:17.278Z,39.82
2023-04-29T19:42:45.527Z,39.89
2023-04-29T19:45:13.666Z,39.88
2023-04-29T19:47:41.806Z,39.94
2023-04-29T19:50:10.847Z,39.97
2023-04-29T19:52:38.948Z,39.90
2023-04-29T19:55:09.067Z,39.93
2023-04-29T19:57:39.024Z,39.79
2023-04-29T20:00:09.522Z,39.92
2023-04-29T20:02:37.739Z,39.87
2023-04-29T20:05:06.809Z,39.93
2023-04-29T20:07:34.933Z,39.87
2023-04-29T20:10:03.065Z,39.82
2023-04-29T20:12:31.446Z,39.91
2023-04-29T20:15:01.108Z,39.86
2023-04-29T20:17:29.561Z,39.80
2023-04-29T20:19:57.821Z,39.90
2023-04-29T20:22:26.002Z,39.84
2023-04-29T20:24:54.073Z,39.80
2023-04-29T20:27:22.286Z,39.99
2023-04-29T20:29:50.468Z,39.85
2023-04-29T20:32:19.948Z,39.79
2023-04-29T20:34:48.416Z,39.83
2023-04-29T20:37:16.553Z,39.82
2023-04-29T20:39:44.671Z,39.93
2023-04-29T20:42:12.859Z,39.80
2023-04-29T20:44:40.987Z,39.94
2023-04-29T20:47:09.800Z,39.83
2023-04-29T20:49:39.325Z,39.92
2023-04-29T20:52:07.546Z,39.83
2023-04-29T20:54:36.096Z,39.81
2023-04-29T20:57:05.709Z,39.87
2023-04-29T20:59:34.359Z,39.82
2023-04-29T21:02:02.816Z,39.88
2023-04-29T21:04:30.942Z,39.88
2023-04-29T21:07:03.092Z,39.67
2023-04-29T21:09:31.281Z,39.86
2023-04-29T21:12:01.503Z,39.84
2023-04-29T21:14:29.599Z,39.87
2023-04-29T21:16:57.729Z,39.76
2023-04-29T21:19:26.150Z,39.87
2023-04-29T21:21:54.252Z,39.86
2023-04-29T21:24:24.285Z,39.72
2023-04-29T21:26:52.377Z,39.80
2023-04-29T21:29:20.683Z,39.96
2023-04-29T21:31:48.900Z,39.83
2023-04-29T21:34:17.494Z,39.79
2023-04-29T21:36:45.578Z,39.65
2023-04-29T21:39:13.728Z,39.66
2023-04-29T21:41:45.357Z,39.67
2023-04-29T21:44:13.628Z,39.75
2023-04-29T21:46:42.238Z,39.78
2023-04-29T21:49:10.873Z,39.66
2023-04-29T21:51:39.144Z,39.75
2023-04-29T21:54:08.615Z,39.72
2023-04-29T21:56:36.839Z,39.59
2023-04-29T21:59:06.381Z,39.66
2023-04-29T22:01:59.678Z,39.58
2023-04-29T22:04:28.293Z,39.71
2023-04-29T22:06:56.804Z,39.76
2023-04-29T22:09:24.829Z,39.64
2023-04-29T22:11:52.939Z,39.59
2023-04-29T22:14:22.356Z,39.57
2023-04-29T22:16:50.407Z,39.62
2023-04-29T22:19:18.636Z,39.56
2023-04-29T22:21:46.882Z,39.52
2023-04-29T22:24:14.922Z,39.49
2023-04-29T22:26:42.996Z,39.57
2023-04-29T22:29:11.516Z,39.48
2023-04-29T22:31:40.955Z,39.48
2023-04-29T22:34:09.029Z,39.54
2023-04-29T22:36:39.796Z,39.53
2023-04-29T22:39:07.994Z,39.55
2023-04-29T22:41:36.018Z,39.49
2023-04-29T22:44:04.117Z,39.40
2023-04-29T22:46:33.351Z,39.49
2023-04-29T22:49:03.139Z,39.51
2023-04-29T22:51:31.752Z,39.29
2023-04-29T22:53:59.885Z,39.63
2023-04-29T22:56:28.968Z,39.53
2023-04-29T22:58:57.072Z,39.53
2023-04-29T23:01:25.258Z,39.44
2023-04-29T23:03:53.317Z,39.48
2023-04-29T23:06:22.947Z,39.48
2023-04-29T23:08:51.139Z,39.38
2023-04-29T23:11:19.243Z,39.44
2023-04-29T23:13:47.320Z,39.35
2023-04-29T23:16:15.516Z,39.38
2023-04-29T23:18:43.669Z,39.38
2023-04-29T23:21:11.744Z,39.40
2023-04-29T23:23:41.237Z,39.50
2023-04-29T23:26:09.363Z,39.37
2023-04-29T23:28:37.531Z,39.37
2023-04-29T23:31:06.170Z,39.41
2023-04-29T23:33:34.274Z,39.43
2023-04-29T23:36:02.388Z,39.38
2023-04-29T23:38:30.518Z,39.42
2023-04-29T23:41:00.026Z,39.38
2023-04-29T23:43:28.085Z,39.28
2023-04-29T23:45:56.279Z,39.44
2023-04-29T23:48:24.392Z,39.32
2023-04-29T23:50:52.454Z,39.27
2023-04-29T23:53:20.566Z,39.38
2023-04-29T23:55:49.977Z,39.30
2023-04-29T23:58:19.474Z,39.33
